Time;durP1;ratioP1;P1;durP2;ratioP2;P2;SDS_P1;SDS_P2;PMS_P1;PMS_P2;Temp;Humidity;BMP_temperature;BMP_pressure;BME280_temperature;BME280_humidity;BME280_pressure;Samples;Min_cycle;Max_cycle;Signal;HPM_P1;HPM_P2
2022/04/27 00:00:17;;;;;;;4.28;2.35;;;;;;;12.16;67.86;95360.56;5064815;28;20111;-71
2022/04/27 00:02:42;;;;;;;3.80;2.28;;;;;;;12.22;67.70;95355.28;5064319;28;20414;-71
2022/04/27 00:05:08;;;;;;;4.82;2.47;;;;;;;12.25;67.51;95354.06;5064061;28;20100;-70
2022/04/27 00:07:34;;;;;;;5.57;2.50;;;;;;;12.28;67.25;95363.63;5064912;28;20032;-70
2022/04/27 00:09:59;;;;;;;5.57;2.47;;;;;;;12.24;67.62;95355.91;5063618;28;20499;-71
2022/04/27 00:12:25;;;;;;;2.90;2.05;;;;;;;12.25;67.49;95354.06;5065010;28;20032;-71
2022/04/27 00:14:51;;;;;;;4.05;2.20;;;;;;;12.23;67.61;95356.13;5064135;28;20347;-69
2022/04/27 00:17:16;;;;;;;3.92;2.30;;;;;;;12.23;67.54;95362.34;5065074;28;20395;-71
2022/04/27 00:19:42;;;;;;;3.17;2.10;;;;;;;12.18;67.69;95358.53;5063980;28;20036;-70
2022/04/27 00:22:07;;;;;;;4.35;2.50;;;;;;;12.21;67.76;95356.31;5064149;28;20029;-71
2022/04/27 00:24:32;;;;;;;4.03;2.00;;;;;;;12.20;67.71;95354.63;5064299;28;20079;-71
2022/04/27 00:26:58;;;;;;;4.40;2.38;;;;;;;12.21;67.61;95356.31;5063668;28;20495;-70
2022/04/27 00:29:23;;;;;;;4.78;2.20;;;;;;;12.21;67.67;95352.78;5064404;28;20032;-70
2022/04/27 00:31:49;;;;;;;3.75;2.47;;;;;;;12.17;67.93;95346.13;5063426;28;20028;-69
2022/04/27 00:34:14;;;;;;;4.90;2.90;;;;;;;12.19;67.68;95361.03;5064377;28;20040;-71
2022/04/27 00:36:40;;;;;;;5.65;2.72;;;;;;;12.19;67.40;95362.88;5063541;28;20035;-71
2022/04/27 00:39:05;;;;;;;3.80;2.55;;;;;;;12.14;68.02;95360.75;5064485;28;20418;-70
2022/04/27 00:41:30;;;;;;;6.82;2.30;;;;;;;12.10;67.40;95364.84;5045610;28;20068;-70
2022/04/27 00:43:56;;;;;;;4.97;2.90;;;;;;;12.06;67.00;95364.34;5064007;28;20036;-69
2022/04/27 00:46:21;;;;;;;5.95;3.50;;;;;;;11.99;66.43;95366.97;5063837;28;20407;-70
2022/04/27 00:48:47;;;;;;;5.15;3.50;;;;;;;11.90;66.72;95362.72;5063964;28;20028;-71
2022/04/27 00:51:14;;;;;;;6.72;3.60;;;;;;;11.83;66.79;95356.44;5064323;28;20028;-71
2022/04/27 00:53:40;;;;;;;4.40;3.53;;;;;;;11.82;66.69;95362.81;5064910;28;20039;-70
2022/04/27 00:56:06;;;;;;;5.32;3.97;;;;;;;11.80;66.42;95362.19;5068197;28;20463;-69
2022/04/27 00:58:31;;;;;;;7.38;3.60;;;;;;;11.74;66.11;95361.91;5048902;28;20062;-71
2022/04/27 01:00:57;;;;;;;5.05;4.10;;;;;;;11.67;66.51;95369.03;5067508;28;20039;-70
2022/04/27 01:03:22;;;;;;;8.82;4.00;;;;;;;11.61;66.67;95369.75;5067228;28;20025;-71
2022/04/27 01:05:48;;;;;;;6.72;3.97;;;;;;;11.57;66.71;95363.94;5048911;28;20033;-71
2022/04/27 01:08:16;;;;;;;6.38;4.22;;;;;;;11.61;66.56;95364.38;5050102;28;20431;-71
2022/04/27 01:10:42;;;;;;;7.55;4.20;;;;;;;11.66;66.87;95366.53;5066636;28;20058;-72
2022/04/27 01:13:07;;;;;;;7.10;4.03;;;;;;;11.48;67.14;95355.13;5049950;28;20507;-70
2022/04/27 01:15:33;;;;;;;6.35;4.15;;;;;;;11.41;67.73;95356.06;5048751;28;20348;-73
2022/04/27 01:17:59;;;;;;;5.80;4.47;;;;;;;11.39;67.62;95353.56;5067526;28;20028;-72
2022/04/27 01:20:24;;;;;;;4.95;3.75;;;;;;;11.31;67.39;95359.00;5066724;28;20399;-75
2022/04/27 01:22:50;;;;;;;4.55;3.72;;;;;;;11.27;66.65;95350.47;5066726;28;20024;-71
2022/04/27 01:25:16;;;;;;;6.45;4.18;;;;;;;11.27;67.01;95357.72;5067411;28;20086;-72
2022/04/27 01:27:42;;;;;;;5.00;3.97;;;;;;;11.30;67.34;95357.34;5066164;28;20024;-70
2022/04/27 01:30:08;;;;;;;8.52;3.88;;;;;;;11.28;66.71;95354.84;5049465;28;20035;-71
2022/04/27 01:32:34;;;;;;;7.13;4.50;;;;;;;11.29;66.36;95358.34;5065876;28;20024;-69
2022/04/27 01:34:59;;;;;;;7.28;4.38;;;;;;;11.25;66.02;95360.59;5049467;28;20135;-72
2022/04/27 01:40:09;;;;;;;6.22;4.00;;;;;;;11.00;65.80;95358.13;5066658;28;20816;-71
2022/04/27 01:42:34;;;;;;;6.07;4.22;;;;;;;10.94;64.86;95357.00;5048435;28;20527;-71
2022/04/27 01:45:02;;;;;;;5.72;4.28;;;;;;;10.84;66.87;95359.09;5066449;28;20043;-71
2022/04/27 01:47:27;;;;;;;5.90;4.30;;;;;;;10.78;66.70;95354.47;5066884;28;20123;-71
2022/04/27 01:49:53;;;;;;;7.57;3.83;;;;;;;10.73;67.15;95363.03;5047819;28;20032;-71
2022/04/27 01:55:02;;;;;;;6.88;4.80;;;;;;;10.58;66.02;95360.28;5066516;28;20059;-71
2022/04/27 01:57:27;;;;;;;7.72;5.57;;;;;;;10.54;66.05;95364.38;5066202;28;20032;-72
2022/04/27 01:59:54;;;;;;;8.93;5.45;;;;;;;10.49;66.36;95360.34;5066322;28;20040;-71
2022/04/27 02:02:20;;;;;;;8.50;4.53;;;;;;;10.44;66.66;95354.69;5065717;28;20086;-71
2022/04/27 02:04:46;;;;;;;5.25;4.10;;;;;;;10.51;66.03;95354.84;5066072;28;20115;-71
2022/04/27 02:07:12;;;;;;;5.82;4.30;;;;;;;10.45;66.15;95350.97;5065438;28;20403;-70
2022/04/27 02:09:37;;;;;;;8.23;4.53;;;;;;;10.37;66.43;95356.38;5066590;28;20036;-69
2022/04/27 02:12:06;;;;;;;6.78;4.15;;;;;;;10.33;66.47;95352.41;5066167;28;20029;-70
2022/04/27 02:14:31;;;;;;;6.50;4.25;;;;;;;10.30;66.73;95356.25;5065834;28;20475;-71
2022/04/27 02:16:57;;;;;;;6.90;4.75;;;;;;;10.25;67.37;95358.66;5066306;28;20024;-72
2022/04/27 02:19:23;;;;;;;7.70;5.20;;;;;;;10.18;68.14;95353.16;5065414;28;20024;-71
2022/04/27 02:21:48;;;;;;;9.88;4.88;;;;;;;10.17;67.83;95358.69;5066019;28;20025;-71
2022/04/27 02:24:14;;;;;;;7.93;4.43;;;;;;;10.16;67.99;95355.19;5064989;28;20063;-72
2022/04/27 02:26:42;;;;;;;9.13;4.93;;;;;;;10.15;68.00;95356.19;5066115;28;20104;-71
2022/04/27 02:29:08;;;;;;;6.75;4.85;;;;;;;10.16;68.42;95357.84;5064986;28;20063;-71
2022/04/27 02:31:34;;;;;;;6.93;4.68;;;;;;;10.18;67.98;95361.19;5066102;28;20052;-71
2022/04/27 02:34:00;;;;;;;7.78;4.53;;;;;;;10.16;67.32;95360.53;5065142;28;20027;-71
2022/04/27 02:36:25;;;;;;;7.80;4.78;;;;;;;10.15;67.94;95361.56;5065265;28;20031;-71
2022/04/27 02:38:50;;;;;;;7.70;4.72;;;;;;;10.13;68.05;95355.53;5047793;28;20017;-71
2022/04/27 02:41:16;;;;;;;8.57;4.85;;;;;;;10.09;68.90;95351.53;5064617;28;20477;-70
2022/04/27 02:43:41;;;;;;;8.10;4.45;;;;;;;10.10;69.31;95358.56;5065564;28;20484;-71
2022/04/27 02:46:07;;;;;;;7.00;4.78;;;;;;;10.05;68.91;95352.88;5064590;28;20037;-71
2022/04/27 02:48:32;;;;;;;7.00;5.00;;;;;;;10.07;69.33;95351.72;5065996;28;20035;-71
2022/04/27 02:53:42;;;;;;;5.78;4.50;;;;;;;10.16;69.48;95352.50;5065096;28;20442;-70
2022/04/27 02:56:07;;;;;;;6.93;4.90;;;;;;;10.14;69.63;95354.50;5065173;28;20514;-71
2022/04/27 02:58:32;;;;;;;9.73;4.82;;;;;;;10.11;68.69;95350.34;5064626;28;20032;-70
2022/04/27 03:00:58;;;;;;;10.52;5.00;;;;;;;10.17;69.18;95356.88;5065307;28;20043;-71
2022/04/27 03:03:23;;;;;;;7.07;4.47;;;;;;;10.19;68.11;95352.13;5064232;28;20024;-70
2022/04/27 03:05:49;;;;;;;7.50;4.35;;;;;;;10.17;67.70;95358.69;5065367;28;20032;-71
2022/04/27 03:08:14;;;;;;;6.78;4.50;;;;;;;10.16;67.72;95365.06;5064689;28;20028;-72
2022/04/27 03:10:40;;;;;;;8.82;4.30;;;;;;;10.10;68.36;95363.91;5065056;28;20028;-70
2022/04/27 03:13:05;;;;;;;6.72;4.40;;;;;;;10.02;68.94;95360.28;5064854;28;20625;-72
2022/04/27 03:15:32;;;;;;;7.88;4.78;;;;;;;10.03;68.99;95353.06;5064045;28;20101;-70
2022/04/27 03:20:42;;;;;;;8.70;4.95;;;;;;;9.98;69.11;95367.00;5064311;28;20039;-70
2022/04/27 03:23:07;;;;;;;10.80;6.70;;;;;;;9.97;68.85;95375.19;5065215;28;20427;-72
2022/04/27 03:25:33;;;;;;;6.20;4.88;;;;;;;9.94;69.17;95371.03;5064625;28;20435;-70
2022/04/27 03:27:58;;;;;;;9.27;4.82;;;;;;;9.98;68.73;95369.66;5064845;28;20419;-71
2022/04/27 03:30:24;;;;;;;8.63;5.22;;;;;;;9.91;69.45;95376.75;5065008;28;20503;-70
2022/04/27 03:32:49;;;;;;;7.15;4.75;;;;;;;9.90;69.18;95372.38;5064716;28;20036;-71
2022/04/27 03:35:14;;;;;;;7.57;5.15;;;;;;;9.86;69.22;95376.44;5064875;28;20402;-70
2022/04/27 03:37:40;;;;;;;8.00;5.13;;;;;;;9.91;68.61;95384.78;5063997;28;20028;-71
2022/04/27 03:40:08;;;;;;;10.18;4.75;;;;;;;9.93;69.04;95388.09;5047297;28;20024;-70
2022/04/27 03:42:33;;;;;;;8.23;4.70;;;;;;;9.97;68.58;95392.13;5063844;28;20052;-71
2022/04/27 03:44:59;;;;;;;6.93;5.13;;;;;;;9.97;68.32;95396.63;5064926;28;20115;-70
2022/04/27 03:47:25;;;;;;;8.77;5.63;;;;;;;9.94;69.08;95392.47;5064461;28;20054;-70
2022/04/27 03:49:51;;;;;;;8.45;5.07;;;;;;;9.89;69.63;95389.47;5064727;28;20471;-70
2022/04/27 03:52:17;;;;;;;8.13;5.38;;;;;;;9.81;70.23;95386.81;5064606;28;20465;-71
2022/04/27 03:54:43;;;;;;;6.25;5.65;;;;;;;9.80;69.98;95390.53;5046102;28;20480;-70
2022/04/27 03:57:08;;;;;;;8.32;5.25;;;;;;;9.86;70.18;95397.84;5064750;28;20078;-71
2022/04/27 03:59:34;;;;;;;8.98;6.72;;;;;;;9.90;70.26;95407.22;5064011;28;20025;-70
2022/04/27 04:02:00;;;;;;;11.35;5.93;;;;;;;9.95;70.04;95407.53;5065166;28;20024;-71
2022/04/27 04:04:25;;;;;;;8.38;5.75;;;;;;;10.07;69.38;95410.66;5063757;28;20063;-70
2022/04/27 04:06:50;;;;;;;7.10;5.72;;;;;;;10.17;67.77;95418.50;5064715;28;20395;-70
2022/04/27 04:09:16;;;;;;;8.88;5.55;;;;;;;10.21;69.35;95417.13;5064298;28;20027;-71
2022/04/27 04:11:41;;;;;;;11.50;6.22;;;;;;;10.16;69.14;95426.72;5063945;28;20430;-71
2022/04/27 04:14:07;;;;;;;7.97;6.28;;;;;;;10.23;68.61;95425.84;5064797;28;20035;-71
2022/04/27 04:16:32;;;;;;;8.98;5.70;;;;;;;10.27;68.45;95418.25;5063922;28;20109;-70
2022/04/27 04:18:57;;;;;;;8.50;5.53;;;;;;;10.34;68.79;95427.28;5065023;28;20097;-70
2022/04/27 04:21:24;;;;;;;8.00;5.88;;;;;;;10.40;68.20;95425.75;5063719;28;20033;-71
2022/04/27 04:23:49;;;;;;;8.20;5.43;;;;;;;10.51;67.63;95425.38;5064766;28;20514;-70
2022/04/27 04:28:58;;;;;;;7.65;5.55;;;;;;;10.84;66.64;95434.22;5067477;28;20040;-70
2022/04/27 04:31:24;;;;;;;7.78;5.88;;;;;;;10.97;66.39;95429.09;5068045;28;20407;-70
2022/04/27 04:33:49;;;;;;;9.88;5.43;;;;;;;11.20;65.89;95428.25;5067376;28;20082;-71
2022/04/27 04:36:15;;;;;;;8.20;5.90;;;;;;;11.40;65.22;95432.28;5068232;28;20032;-70
2022/04/27 04:38:40;;;;;;;7.90;5.50;;;;;;;11.60;64.17;95424.50;5067353;28;20029;-70
2022/04/27 04:41:06;;;;;;;7.97;5.47;;;;;;;11.70;63.83;95429.63;5068562;28;20024;-72
2022/04/27 04:43:32;;;;;;;12.15;6.10;;;;;;;11.93;63.18;95437.59;5048903;28;20106;-70
2022/04/27 04:45:57;;;;;;;9.13;5.68;;;;;;;12.11;62.70;95439.09;5067907;28;20029;-71
2022/04/27 04:48:23;;;;;;;13.05;5.70;;;;;;;12.21;62.78;95436.97;5067861;28;20047;-69
2022/04/27 04:50:48;;;;;;;8.75;5.53;;;;;;;12.38;62.44;95447.50;5067077;28;20502;-72
2022/04/27 04:53:14;;;;;;;11.20;7.10;;;;;;;12.54;62.07;95443.75;5067994;28;20024;-71
2022/04/27 04:55:39;;;;;;;12.27;5.90;;;;;;;12.77;61.37;95450.03;5066582;28;20024;-72
2022/04/27 04:58:05;;;;;;;10.82;5.35;;;;;;;12.95;61.34;95453.13;5068252;28;20025;-70
2022/04/27 05:00:30;;;;;;;13.27;5.10;;;;;;;13.17;60.78;95453.09;5067125;28;20032;-71
2022/04/27 05:02:55;;;;;;;7.60;5.28;;;;;;;13.36;60.43;95456.19;5067845;28;20028;-73
2022/04/27 05:05:21;;;;;;;10.82;5.28;;;;;;;13.50;60.22;95446.34;5067072;28;20021;-72
2022/04/27 05:07:46;;;;;;;9.23;5.00;;;;;;;13.68;59.92;95450.44;5067248;28;20039;-72
2022/04/27 05:10:12;;;;;;;16.33;6.15;;;;;;;13.88;59.18;95450.56;5067765;28;20024;-72
2022/04/27 05:12:37;;;;;;;5.28;4.43;;;;;;;14.07;59.27;95461.69;5066545;28;20101;-72
2022/04/27 05:15:03;;;;;;;7.75;5.40;;;;;;;14.21;59.36;95452.66;5067765;28;20028;-72
2022/04/27 05:17:28;;;;;;;14.80;5.63;;;;;;;14.41;58.80;95451.91;5066479;28;20055;-71
2022/04/27 05:19:54;;;;;;;9.73;5.55;;;;;;;14.55;58.42;95454.66;5067700;28;20021;-71
2022/04/27 05:22:20;;;;;;;7.30;4.53;;;;;;;14.77;57.29;95446.41;5066724;28;20024;-72
2022/04/27 05:24:45;;;;;;;6.78;4.43;;;;;;;14.93;56.65;95454.19;5067074;28;20028;-72
2022/04/27 05:27:11;;;;;;;9.63;4.57;;;;;;;15.06;57.01;95447.16;5067192;28;20525;-71
2022/04/27 05:32:20;;;;;;;7.15;4.43;;;;;;;15.39;56.83;95445.53;5067729;28;20078;-72
2022/04/27 05:34:45;;;;;;;6.53;4.75;;;;;;;15.55;56.81;95449.69;5066162;28;20407;-72
2022/04/27 05:37:12;;;;;;;7.07;4.60;;;;;;;15.59;56.55;95456.34;5067697;28;20448;-72
2022/04/27 05:39:38;;;;;;;8.80;4.00;;;;;;;15.73;55.79;95456.34;5065277;28;20115;-70
2022/04/27 05:42:03;;;;;;;9.23;3.88;;;;;;;15.84;55.37;95457.56;5066855;28;20040;-71
2022/04/27 05:44:31;;;;;;;7.65;5.10;;;;;;;15.80;55.32;95459.84;5066783;28;20440;-71
2022/04/27 05:46:57;;;;;;;7.22;4.88;;;;;;;15.98;55.20;95456.53;5066153;28;20086;-73
2022/04/27 05:49:22;;;;;;;5.63;3.70;;;;;;;16.10;54.63;95456.75;5067248;28;20020;-73
2022/04/27 05:51:48;;;;;;;13.98;4.50;;;;;;;16.28;54.46;95458.75;5065874;28;20020;-72
2022/04/27 05:54:16;;;;;;;9.48;4.32;;;;;;;16.41;54.35;95460.59;5067266;28;20029;-72
2022/04/27 05:56:42;;;;;;;7.18;3.90;;;;;;;16.58;53.07;95457.41;5065781;28;20036;-74
2022/04/27 05:59:08;;;;;;;8.88;4.05;;;;;;;16.63;53.26;95460.31;5066874;28;20086;-72
2022/04/27 06:01:33;;;;;;;11.77;5.03;;;;;;;16.76;53.73;95453.19;5066332;28;20366;-72
2022/04/27 06:03:59;;;;;;;23.98;7.60;;;;;;;16.68;53.41;95459.69;5066445;28;20029;-71
2022/04/27 06:06:24;;;;;;;24.88;7.13;;;;;;;16.80;53.11;95462.53;5066717;28;20556;-72
2022/04/27 06:08:50;;;;;;;8.77;4.22;;;;;;;17.02;52.38;95462.22;5065943;28;20020;-71
2022/04/27 06:11:16;;;;;;;6.70;3.47;;;;;;;17.19;51.73;95457.13;5066799;28;20025;-72
2022/04/27 06:13:42;;;;;;;8.20;4.55;;;;;;;17.33;51.54;95452.44;5065294;28;20025;-73
2022/04/27 06:16:08;;;;;;;10.02;4.22;;;;;;;17.51;52.12;95454.41;5066860;28;20081;-71
2022/04/27 06:18:33;;;;;;;8.35;4.15;;;;;;;17.53;51.93;95457.75;5065798;28;20032;-72
2022/04/27 06:20:59;;;;;;;11.15;4.43;;;;;;;17.53;51.78;95457.75;5066074;28;20047;-71
2022/04/27 06:23:24;;;;;;;11.30;4.20;;;;;;;17.71;50.73;95461.56;5066240;28;20027;-70
2022/04/27 06:25:50;;;;;;;12.00;4.50;;;;;;;17.84;50.97;95457.91;5065713;28;20028;-71
2022/04/27 06:28:19;;;;;;;6.20;4.10;;;;;;;17.91;51.52;95447.81;5048407;28;20025;-71
2022/04/27 06:30:44;;;;;;;9.48;3.72;;;;;;;17.79;50.57;95455.88;5064985;28;20107;-71
2022/04/27 06:33:10;;;;;;;9.77;4.03;;;;;;;17.87;50.70;95460.16;5066579;28;20039;-73
2022/04/27 06:35:35;;;;;;;8.63;3.63;;;;;;;17.96;50.10;95460.69;5065183;28;20418;-72
2022/04/27 06:38:00;;;;;;;9.43;3.45;;;;;;;18.16;49.15;95449.69;5066054;28;20086;-71
2022/04/27 06:40:26;;;;;;;5.68;3.00;;;;;;;18.15;49.58;95455.34;5065635;28;20070;-72
2022/04/27 06:42:53;;;;;;;18.73;4.00;;;;;;;18.23;49.65;95459.66;5064981;28;20114;-72
2022/04/27 06:45:18;;;;;;;5.38;3.45;;;;;;;18.39;49.43;95450.88;5065857;28;20033;-72
2022/04/27 06:47:44;;;;;;;6.57;2.58;;;;;;;18.49;49.62;95453.06;5065210;28;20028;-70
2022/04/27 06:50:12;;;;;;;7.55;3.65;;;;;;;18.55;48.27;95445.09;5065548;28;20497;-70
2022/04/27 06:52:42;;;;;;;9.40;3.20;;;;;;;18.55;48.65;95451.34;5064634;28;20064;-71
2022/04/27 06:55:08;;;;;;;6.38;3.75;;;;;;;18.68;50.13;95452.25;5065537;28;20339;-70
2022/04/27 06:57:34;;;;;;;11.68;4.75;;;;;;;18.11;49.46;95446.78;5064871;28;20555;-70
2022/04/27 06:59:59;;;;;;;9.55;4.60;;;;;;;18.11;50.44;95457.66;5064739;28;20028;-72
2022/04/27 07:02:25;;;;;;;7.78;4.32;;;;;;;18.16;50.20;95452.41;5065561;28;20066;-71
2022/04/27 07:04:55;;;;;;;10.05;4.20;;;;;;;18.45;49.31;95448.34;5064816;28;20024;-71
2022/04/27 07:07:21;;;;;;;9.50;4.45;;;;;;;18.47;48.83;95448.94;5065879;28;20028;-70
2022/04/27 07:09:46;;;;;;;8.90;4.63;;;;;;;18.55;49.33;95443.22;5064391;28;20426;-71
2022/04/27 07:12:13;;;;;;;7.50;4.35;;;;;;;18.69;49.75;95449.31;5065515;28;20051;-71
2022/04/27 07:14:38;;;;;;;9.23;3.92;;;;;;;18.79;50.40;95446.03;5064380;28;20026;-71
2022/04/27 07:17:04;;;;;;;6.82;5.07;;;;;;;18.71;49.99;95455.34;5065173;28;20032;-71
2022/04/27 07:19:29;;;;;;;9.07;5.15;;;;;;;18.67;51.43;95450.59;5064518;28;20832;-70
2022/04/27 07:21:55;;;;;;;9.55;4.28;;;;;;;18.65;50.36;95451.63;5064176;28;20085;-72
2022/04/27 07:24:20;;;;;;;8.63;3.78;;;;;;;18.72;49.64;95445.28;5046389;28;20114;-70
2022/04/27 07:26:46;;;;;;;7.82;4.30;;;;;;;18.24;50.94;95453.16;5029368;28;20467;-71
2022/04/27 07:29:11;;;;;;;5.97;4.00;;;;;;;18.46;51.78;95439.16;5064934;28;20035;-71
2022/04/27 07:31:37;;;;;;;7.57;4.13;;;;;;;18.67;50.47;95447.88;5064045;28;20031;-72
2022/04/27 07:34:02;;;;;;;9.05;4.03;;;;;;;18.80;49.53;95441.44;5065063;28;20032;-70
2022/04/27 07:36:28;;;;;;;7.20;3.40;;;;;;;18.99;49.64;95444.97;5064378;28;20078;-71
2022/04/27 07:38:53;;;;;;;9.95;4.13;;;;;;;19.14;50.14;95439.97;5064661;28;20081;-70
2022/04/27 07:41:19;;;;;;;11.75;3.70;;;;;;;18.95;49.19;95443.75;5046548;28;20032;-71
2022/04/27 07:43:44;;;;;;;8.88;3.90;;;;;;;18.55;49.72;95440.50;5063878;28;20522;-70
2022/04/27 07:46:11;;;;;;;7.35;3.72;;;;;;;18.89;49.71;95446.31;5064522;28;20020;-71
2022/04/27 07:48:37;;;;;;;13.07;4.22;;;;;;;18.85;49.67;95439.69;5064107;28;20082;-71
2022/04/27 07:51:03;;;;;;;8.27;3.90;;;;;;;18.89;49.69;95443.59;5065243;28;20020;-71
2022/04/27 07:53:28;;;;;;;6.43;3.50;;;;;;;19.12;48.08;95438.53;5045943;28;20029;-71
2022/04/27 07:55:54;;;;;;;6.07;4.32;;;;;;;19.31;48.10;95439.31;5064990;28;20059;-71
2022/04/27 07:58:19;;;;;;;7.80;4.00;;;;;;;19.52;47.50;95439.81;5064097;28;20032;-71
2022/04/27 08:00:45;;;;;;;12.02;4.00;;;;;;;19.58;47.63;95438.03;5064130;28;20024;-71
2022/04/27 08:03:10;;;;;;;7.20;3.55;;;;;;;19.64;48.02;95429.78;5067008;28;20418;-71
2022/04/27 08:05:36;;;;;;;7.03;4.00;;;;;;;19.72;47.47;95428.59;5067960;28;20116;-71
2022/04/27 08:08:01;;;;;;;15.82;5.43;;;;;;;19.79;48.40;95430.38;5051027;28;20032;-72
2022/04/27 08:10:27;;;;;;;7.25;4.47;;;;;;;19.88;47.67;95426.22;5067389;28;20403;-71
2022/04/27 08:12:52;;;;;;;12.27;4.28;;;;;;;19.88;48.05;95428.94;5069356;28;20021;-71
2022/04/27 08:15:19;;;;;;;6.45;4.18;;;;;;;20.01;47.96;95430.59;5067681;28;20406;-71
2022/04/27 08:17:55;;;;;;;9.25;4.53;;;;;;;20.01;46.30;95426.00;5068643;28;20028;-71
2022/04/27 08:23:07;;;;;;;8.30;4.43;;;;;;;20.29;46.32;95423.66;5067795;28;20063;-71
2022/04/27 08:25:33;;;;;;;8.35;4.00;;;;;;;20.43;44.59;95417.91;5050773;28;20170;-70
2022/04/27 08:27:59;;;;;;;9.00;4.30;;;;;;;20.43;43.95;95410.59;5067468;28;20050;-70
2022/04/27 08:30:24;;;;;;;12.50;4.85;;;;;;;20.38;46.85;95411.31;5068622;28;20032;-72
2022/04/27 08:32:49;;;;;;;7.07;4.28;;;;;;;20.43;48.35;95412.47;5068098;28;20032;-72
2022/04/27 08:35:15;;;;;;;8.98;4.10;;;;;;;20.38;45.04;95411.31;5067879;28;20032;-71
2022/04/27 08:37:40;;;;;;;6.03;4.00;;;;;;;20.38;43.99;95408.59;5067946;28;20031;-72
2022/04/27 08:40:06;;;;;;;9.15;4.43;;;;;;;20.31;44.81;95407.91;5067114;28;20024;-71
2022/04/27 08:42:32;;;;;;;8.00;3.90;;;;;;;20.43;43.92;95407.03;5050030;28;20086;-73
2022/04/27 08:44:57;;;;;;;10.05;4.25;;;;;;;20.46;44.32;95398.38;5067032;28;20471;-71
2022/04/27 08:47:23;;;;;;;10.57;5.03;;;;;;;20.52;44.47;95400.16;5050166;28;20033;-71
2022/04/27 08:49:48;;;;;;;7.85;4.07;;;;;;;20.58;45.37;95399.19;5067429;28;20021;-71
2022/04/27 08:52:14;;;;;;;5.80;4.15;;;;;;;20.52;47.03;95400.16;5050207;28;20017;-71
2022/04/27 08:54:40;;;;;;;7.32;4.05;;;;;;;20.58;43.56;95399.19;5049521;28;20036;-72
2022/04/27 08:57:05;;;;;;;6.18;3.70;;;;;;;20.74;43.65;95394.88;5049374;28;20016;-72
2022/04/27 08:59:31;;;;;;;9.90;4.00;;;;;;;20.70;44.71;95393.69;5067372;28;20029;-72
2022/04/27 09:01:56;;;;;;;9.13;4.07;;;;;;;20.60;45.81;95391.59;5066966;28;20017;-73
2022/04/27 09:04:22;;;;;;;10.35;3.80;;;;;;;20.80;44.56;95389.50;5050143;28;20024;-74
2022/04/27 09:06:49;;;;;;;8.57;4.35;;;;;;;20.90;43.24;95391.59;5066614;28;20021;-73
2022/04/27 09:09:36;;;;;;;9.43;3.75;;;;;;;20.81;42.69;95388.44;5067909;28;20047;-73
2022/04/27 09:12:08;;;;;;;6.93;3.35;;;;;;;20.88;42.30;95381.78;5067312;28;20028;-71
2022/04/27 09:14:37;;;;;;;5.80;3.63;;;;;;;20.95;43.01;95376.22;5065408;28;20025;-72
2022/04/27 09:22:51;;;;;;;5.90;3.20;;;;;;;20.89;42.58;95379.88;5067204;28;20123;-70
2022/04/27 09:25:16;;;;;;;7.22;3.65;;;;;;;20.96;41.98;95366.09;5067099;28;20411;-70
2022/04/27 09:27:41;;;;;;;8.25;3.80;;;;;;;21.06;41.67;95365.47;5031795;28;20020;-73
2022/04/27 09:30:10;;;;;;;5.78;3.47;;;;;;;21.03;42.21;95372.25;5049631;28;20039;-72
2022/04/27 09:32:35;;;;;;;7.82;3.55;;;;;;;21.12;40.44;95361.75;5048569;28;20505;-72
2022/04/27 09:35:02;;;;;;;8.50;3.45;;;;;;;21.08;40.62;95358.72;5049551;28;20028;-76
2022/04/27 09:37:28;;;;;;;6.70;3.10;;;;;;;21.10;39.24;95356.53;5066587;28;20039;-71
2022/04/27 09:40:04;;;;;;;6.90;3.20;;;;;;;20.98;40.86;95350.34;5049036;28;20029;-74
2022/04/27 09:42:31;;;;;;;8.13;3.10;;;;;;;20.96;39.75;95352.47;5067238;28;20120;-71
2022/04/27 09:44:56;;;;;;;7.20;3.92;;;;;;;21.08;39.67;95347.81;5066110;28;20033;-73
2022/04/27 09:47:21;;;;;;;14.20;4.75;;;;;;;21.10;39.37;95351.09;5016158;28;20460;-74
2022/04/27 09:49:53;;;;;;;8.90;3.60;;;;;;;21.15;39.69;95347.63;5065766;28;20549;-72
2022/04/27 09:52:19;;;;;;;5.72;3.10;;;;;;;21.05;40.34;95345.56;5050010;28;20036;-73
2022/04/27 09:54:44;;;;;;;4.82;2.78;;;;;;;21.01;40.93;95346.31;5031449;28;20033;-72
2022/04/27 09:57:10;;;;;;;7.05;3.05;;;;;;;21.09;42.04;95344.00;5032541;28;20506;-73
2022/04/27 09:59:36;;;;;;;6.25;3.08;;;;;;;21.14;40.80;95345.16;5031951;28;20431;-70
2022/04/27 10:02:11;;;;;;;8.20;2.88;;;;;;;21.19;41.02;95342.50;5065817;28;20052;-73
2022/04/27 10:04:37;;;;;;;10.82;3.60;;;;;;;21.08;40.50;95342.34;5048850;28;20485;-72
2022/04/27 10:07:04;;;;;;;7.47;2.70;;;;;;;21.18;41.37;95340.88;5047606;28;20013;-72
2022/04/27 10:09:29;;;;;;;5.18;2.90;;;;;;;21.11;40.63;95327.38;5067114;28;20025;-74
2022/04/27 10:11:55;;;;;;;6.43;2.97;;;;;;;21.16;40.37;95332.09;5065681;28;20108;-73
2022/04/27 10:14:22;;;;;;;4.43;3.33;;;;;;;21.21;41.55;95329.47;5066499;28;20479;-71
2022/04/27 10:16:48;;;;;;;5.70;2.80;;;;;;;21.21;41.17;95329.47;5065874;28;20036;-74
2022/04/27 10:19:15;;;;;;;5.97;3.15;;;;;;;21.33;41.29;95322.03;5031054;28;20563;-71
2022/04/27 10:22:04;;;;;;;8.68;3.15;;;;;;;21.43;41.23;95321.34;5066370;28;20027;-72
2022/04/27 10:24:41;;;;;;;6.22;2.92;;;;;;;21.43;39.76;95315.06;5065304;28;20120;-73
2022/04/27 10:27:26;;;;;;;7.20;3.00;;;;;;;21.45;38.57;95318.38;5066270;28;20036;-71
2022/04/27 10:29:58;;;;;;;11.10;2.70;;;;;;;21.44;39.73;95305.81;5065729;28;20406;-72
2022/04/27 10:32:50;;;;;;;6.50;2.60;;;;;;;21.44;40.12;95311.28;5065294;28;20029;-72
2022/04/27 10:35:21;;;;;;;4.38;2.40;;;;;;;21.38;41.21;95304.09;5066827;28;20410;-72
2022/04/27 10:37:52;;;;;;;6.93;2.55;;;;;;;21.46;39.73;95303.66;5047618;28;20025;-72
2022/04/27 10:40:37;;;;;;;8.68;2.90;;;;;;;21.57;39.31;95302.75;5048411;28;20107;-71
2022/04/27 10:43:05;;;;;;;6.32;2.75;;;;;;;21.41;37.79;95289.97;5051098;28;20106;-72
2022/04/27 10:45:31;;;;;;;7.57;2.90;;;;;;;21.32;38.40;95282.19;5065013;28;20089;-72
2022/04/27 10:47:56;;;;;;;5.35;2.20;;;;;;;21.47;39.08;95283.50;5066036;28;20017;-72
2022/04/27 10:50:23;;;;;;;10.02;2.97;;;;;;;21.61;39.03;95273.06;5064912;28;20035;-71
2022/04/27 10:52:55;;;;;;;8.73;2.55;;;;;;;21.67;38.23;95272.03;5065974;28;20017;-72
2022/04/27 10:55:36;;;;;;;4.85;2.30;;;;;;;21.82;38.75;95263.28;5064933;28;20536;-72
2022/04/27 10:58:14;;;;;;;7.47;2.58;;;;;;;21.94;37.66;95268.59;5065008;28;20020;-73
2022/04/27 11:00:58;;;;;;;5.15;2.28;;;;;;;22.10;37.86;95268.81;5065682;28;20223;-73
2022/04/27 11:03:27;;;;;;;4.78;2.20;;;;;;;22.29;37.81;95263.84;5064720;28;20031;-72
2022/04/27 11:05:52;;;;;;;3.78;2.10;;;;;;;22.43;37.00;95252.50;5066030;28;20020;-71
2022/04/27 11:08:36;;;;;;;7.82;3.05;;;;;;;22.55;37.05;95258.66;5046900;28;20028;-72
2022/04/27 11:11:05;;;;;;;10.45;2.80;;;;;;;22.47;36.43;95251.72;5064664;28;20028;-74
2022/04/27 11:13:30;;;;;;;4.57;2.28;;;;;;;22.48;36.36;95252.56;5065513;28;20044;-71
2022/04/27 11:16:06;;;;;;;3.00;1.92;;;;;;;22.63;36.92;95248.34;5029999;28;20150;-72
2022/04/27 11:18:49;;;;;;;6.38;2.55;;;;;;;22.71;35.35;95239.69;5065810;28;20029;-70
2022/04/27 11:21:14;;;;;;;7.72;2.67;;;;;;;22.78;35.16;95240.28;5064442;28;20082;-72
2022/04/27 11:23:40;;;;;;;4.68;2.20;;;;;;;22.78;35.03;95236.75;5065178;28;20028;-72
2022/04/27 11:26:06;;;;;;;5.55;2.13;;;;;;;22.87;34.42;95234.34;5064788;28;20032;-72
2022/04/27 11:28:32;;;;;;;6.88;2.13;;;;;;;22.96;35.46;95232.78;5046616;28;20028;-72
2022/04/27 11:30:57;;;;;;;6.07;2.33;;;;;;;23.06;34.30;95223.84;5065421;28;20029;-74
2022/04/27 11:33:23;;;;;;;7.35;2.40;;;;;;;23.07;33.00;95229.03;5063908;28;20028;-72
2022/04/27 11:35:49;;;;;;;7.85;2.28;;;;;;;23.15;34.76;95222.25;5065542;28;20033;-72
2022/04/27 11:38:18;;;;;;;5.90;2.10;;;;;;;23.28;33.37;95226.44;5063378;28;20104;-73
2022/04/27 11:40:44;;;;;;;6.07;2.40;;;;;;;23.28;33.31;95220.97;5065166;28;20502;-72
2022/04/27 11:43:09;;;;;;;7.30;1.83;;;;;;;23.40;32.97;95218.09;5064221;28;20033;-73
2022/04/27 11:45:35;;;;;;;4.70;2.10;;;;;;;23.43;32.85;95213.97;5064543;28;20033;-73
2022/04/27 11:48:04;;;;;;;4.82;2.17;;;;;;;23.38;33.95;95212.00;5065170;28;20082;-71
2022/04/27 11:50:34;;;;;;;6.15;2.40;;;;;;;23.27;32.11;95208.41;5064046;28;20033;-72
2022/04/27 11:53:00;;;;;;;5.80;2.13;;;;;;;23.42;32.21;95210.44;5065389;28;20483;-71